sensor_id;sensor_type;location;lat;lon;timestamp;pressure;altitude;pressure_sealevel;temperature
19666;BMP180;9980;51.020;7.772;2022-10-31T00:02:02;98040.00;;;12.90
19666;BMP180;9980;51.020;7.772;2022-10-31T00:04:49;98046.00;;;12.90
19666;BMP180;9980;51.020;7.772;2022-10-31T00:07:29;98040.00;;;12.90
19666;BMP180;9980;51.020;7.772;2022-10-31T00:10:23;98042.00;;;12.90
19666;BMP180;9980;51.020;7.772;2022-10-31T00:12:56;98039.00;;;12.80
19666;BMP180;9980;51.020;7.772;2022-10-31T00:15:50;98039.00;;;12.80
19666;BMP180;9980;51.020;7.772;2022-10-31T00:18:23;98039.00;;;12.80
19666;BMP180;9980;51.020;7.772;2022-10-31T00:21:18;98041.00;;;12.70
19666;BMP180;9980;51.020;7.772;2022-10-31T00:23:52;98030.00;;;12.70
19666;BMP180;9980;51.020;7.772;2022-10-31T00:26:46;98034.00;;;12.70
19666;BMP180;9980;51.020;7.772;2022-10-31T00:29:21;98049.00;;;12.70
19666;BMP180;9980;51.020;7.772;2022-10-31T00:32:15;98030.00;;;12.60
19666;BMP180;9980;51.020;7.772;2022-10-31T00:34:48;98035.00;;;12.60
19666;BMP180;9980;51.020;7.772;2022-10-31T00:37:42;98023.00;;;12.60
19666;BMP180;9980;51.020;7.772;2022-10-31T00:40:22;98039.00;;;12.60
19666;BMP180;9980;51.020;7.772;2022-10-31T00:43:09;98038.00;;;12.50
19666;BMP180;9980;51.020;7.772;2022-10-31T00:45:49;98023.00;;;12.50
19666;BMP180;9980;51.020;7.772;2022-10-31T00:48:36;98047.00;;;12.50
19666;BMP180;9980;51.020;7.772;2022-10-31T00:51:16;98030.00;;;12.50
19666;BMP180;9980;51.020;7.772;2022-10-31T00:54:04;98031.00;;;12.40
19666;BMP180;9980;51.020;7.772;2022-10-31T00:56:44;98040.00;;;12.40
19666;BMP180;9980;51.020;7.772;2022-10-31T00:59:31;98026.00;;;12.40
19666;BMP180;9980;51.020;7.772;2022-10-31T01:02:11;98037.00;;;12.40
19666;BMP180;9980;51.020;7.772;2022-10-31T01:04:58;98042.00;;;12.30
19666;BMP180;9980;51.020;7.772;2022-10-31T01:07:40;98049.00;;;12.30
19666;BMP180;9980;51.020;7.772;2022-10-31T01:10:34;98056.00;;;12.30
19666;BMP180;9980;51.020;7.772;2022-10-31T01:13:08;98037.00;;;12.30
19666;BMP180;9980;51.020;7.772;2022-10-31T01:16:09;98040.00;;;12.20
19666;BMP180;9980;51.020;7.772;2022-10-31T01:18:43;98045.00;;;12.20
19666;BMP180;9980;51.020;7.772;2022-10-31T01:21:36;98024.00;;;12.20
19666;BMP180;9980;51.020;7.772;2022-10-31T01:24:09;98042.00;;;12.20
19666;BMP180;9980;51.020;7.772;2022-10-31T01:27:03;98036.00;;;12.20
19666;BMP180;9980;51.020;7.772;2022-10-31T01:29:37;98027.00;;;12.20
19666;BMP180;9980;51.020;7.772;2022-10-31T01:32:31;98035.00;;;12.10
19666;BMP180;9980;51.020;7.772;2022-10-31T01:35:06;98037.00;;;12.20
19666;BMP180;9980;51.020;7.772;2022-10-31T01:38:00;98035.00;;;12.10
19666;BMP180;9980;51.020;7.772;2022-10-31T01:40:40;98035.00;;;12.10
19666;BMP180;9980;51.020;7.772;2022-10-31T01:44:01;98043.00;;;12.00
19666;BMP180;9980;51.020;7.772;2022-10-31T01:47:01;98038.00;;;12.00
19666;BMP180;9980;51.020;7.772;2022-10-31T01:50:00;98034.00;;;12.00
19666;BMP180;9980;51.020;7.772;2022-10-31T01:52:47;98042.00;;;12.00
19666;BMP180;9980;51.020;7.772;2022-10-31T01:55:46;98036.00;;;11.90
19666;BMP180;9980;51.020;7.772;2022-10-31T01:58:28;98036.00;;;11.90
19666;BMP180;9980;51.020;7.772;2022-10-31T02:01:23;98052.00;;;11.90
19666;BMP180;9980;51.020;7.772;2022-10-31T02:03:56;98021.00;;;11.90
19666;BMP180;9980;51.020;7.772;2022-10-31T02:07:03;98018.00;;;11.90
19666;BMP180;9980;51.020;7.772;2022-10-31T02:09:40;98029.00;;;11.90
19666;BMP180;9980;51.020;7.772;2022-10-31T02:12:35;98024.00;;;11.90
19666;BMP180;9980;51.020;7.772;2022-10-31T02:15:19;98021.00;;;11.90
19666;BMP180;9980;51.020;7.772;2022-10-31T02:18:07;98007.00;;;11.80
19666;BMP180;9980;51.020;7.772;2022-10-31T02:33:41;98023.00;;;11.70
19666;BMP180;9980;51.020;7.772;2022-10-31T02:44:22;98014.00;;;11.60
19666;BMP180;9980;51.020;7.772;2022-10-31T02:47:12;98002.00;;;11.60
19666;BMP180;9980;51.020;7.772;2022-10-31T02:50:21;97997.00;;;11.60
19666;BMP180;9980;51.020;7.772;2022-10-31T02:53:03;97992.00;;;11.60
19666;BMP180;9980;51.020;7.772;2022-10-31T02:59:00;97994.00;;;11.50
19666;BMP180;9980;51.020;7.772;2022-10-31T03:08:37;97998.00;;;11.50
19666;BMP180;9980;51.020;7.772;2022-10-31T03:11:21;98000.00;;;11.40
19666;BMP180;9980;51.020;7.772;2022-10-31T03:15:00;98004.00;;;11.40
19666;BMP180;9980;51.020;7.772;2022-10-31T03:21:29;98007.00;;;11.40
19666;BMP180;9980;51.020;7.772;2022-10-31T03:24:08;98009.00;;;11.40
19666;BMP180;9980;51.020;7.772;2022-10-31T03:27:07;98013.00;;;11.40
19666;BMP180;9980;51.020;7.772;2022-10-31T03:29:45;98008.00;;;11.40
19666;BMP180;9980;51.020;7.772;2022-10-31T03:32:55;98025.00;;;11.40
19666;BMP180;9980;51.020;7.772;2022-10-31T03:35:33;98018.00;;;11.40
19666;BMP180;9980;51.020;7.772;2022-10-31T03:38:29;98032.00;;;11.40
19666;BMP180;9980;51.020;7.772;2022-10-31T03:41:21;98029.00;;;11.30
19666;BMP180;9980;51.020;7.772;2022-10-31T03:44:22;98033.00;;;11.30
19666;BMP180;9980;51.020;7.772;2022-10-31T03:47:04;98037.00;;;11.30
19666;BMP180;9980;51.020;7.772;2022-10-31T03:49:54;98032.00;;;11.30
19666;BMP180;9980;51.020;7.772;2022-10-31T03:52:55;98032.00;;;11.30
19666;BMP180;9980;51.020;7.772;2022-10-31T03:56:19;98012.00;;;11.20
19666;BMP180;9980;51.020;7.772;2022-10-31T03:59:17;98031.00;;;11.20
19666;BMP180;9980;51.020;7.772;2022-10-31T04:02:19;98035.00;;;11.20
19666;BMP180;9980;51.020;7.772;2022-10-31T04:04:55;98025.00;;;11.20
19666;BMP180;9980;51.020;7.772;2022-10-31T04:07:54;98012.00;;;11.20
19666;BMP180;9980;51.020;7.772;2022-10-31T04:10:37;98036.00;;;11.20
19666;BMP180;9980;51.020;7.772;2022-10-31T04:13:33;98012.00;;;11.10
19666;BMP180;9980;51.020;7.772;2022-10-31T04:16:21;98022.00;;;11.20
19666;BMP180;9980;51.020;7.772;2022-10-31T04:19:11;98024.00;;;11.10
19666;BMP180;9980;51.020;7.772;2022-10-31T04:21:51;98024.00;;;11.10
19666;BMP180;9980;51.020;7.772;2022-10-31T04:24:40;98011.00;;;11.10
19666;BMP180;9980;51.020;7.772;2022-10-31T04:27:20;98031.00;;;11.10
19666;BMP180;9980;51.020;7.772;2022-10-31T04:30:15;98026.00;;;11.10
19666;BMP180;9980;51.020;7.772;2022-10-31T04:32:48;98033.00;;;11.10
19666;BMP180;9980;51.020;7.772;2022-10-31T04:35:42;98024.00;;;11.00
19666;BMP180;9980;51.020;7.772;2022-10-31T04:38:15;98023.00;;;11.10
19666;BMP180;9980;51.020;7.772;2022-10-31T04:41:15;98005.00;;;11.00
19666;BMP180;9980;51.020;7.772;2022-10-31T04:43:58;98026.00;;;11.00
19666;BMP180;9980;51.020;7.772;2022-10-31T04:46:55;98018.00;;;11.00
19666;BMP180;9980;51.020;7.772;2022-10-31T04:49:30;98015.00;;;11.00
19666;BMP180;9980;51.020;7.772;2022-10-31T04:52:24;98017.00;;;11.00
19666;BMP180;9980;51.020;7.772;2022-10-31T04:55:05;98021.00;;;11.00
19666;BMP180;9980;51.020;7.772;2022-10-31T04:58:20;98015.00;;;11.00
19666;BMP180;9980;51.020;7.772;2022-10-31T05:01:03;98004.00;;;11.00
19666;BMP180;9980;51.020;7.772;2022-10-31T05:03:50;98015.00;;;11.00
19666;BMP180;9980;51.020;7.772;2022-10-31T05:06:31;98007.00;;;11.00
19666;BMP180;9980;51.020;7.772;2022-10-31T05:09:18;97997.00;;;10.90
19666;BMP180;9980;51.020;7.772;2022-10-31T05:11:58;97993.00;;;10.90
19666;BMP180;9980;51.020;7.772;2022-10-31T05:15:28;97994.00;;;10.90
19666;BMP180;9980;51.020;7.772;2022-10-31T05:18:20;98000.00;;;10.90
19666;BMP180;9980;51.020;7.772;2022-10-31T05:21:17;98012.00;;;10.90
19666;BMP180;9980;51.020;7.772;2022-10-31T05:23:53;98004.00;;;10.90
19666;BMP180;9980;51.020;7.772;2022-10-31T05:26:52;97989.00;;;10.80
19666;BMP180;9980;51.020;7.772;2022-10-31T05:29:25;97986.00;;;10.80
19666;BMP180;9980;51.020;7.772;2022-10-31T05:32:20;97997.00;;;10.80
19666;BMP180;9980;51.020;7.772;2022-10-31T05:35:30;97989.00;;;10.80
19666;BMP180;9980;51.020;7.772;2022-10-31T05:38:43;97986.00;;;10.80
19666;BMP180;9980;51.020;7.772;2022-10-31T05:41:27;97983.00;;;10.80
19666;BMP180;9980;51.020;7.772;2022-10-31T05:44:21;97966.00;;;10.70
19666;BMP180;9980;51.020;7.772;2022-10-31T05:47:07;97970.00;;;10.70
19666;BMP180;9980;51.020;7.772;2022-10-31T05:50:02;97981.00;;;10.70
19666;BMP180;9980;51.020;7.772;2022-10-31T05:53:00;97984.00;;;10.70
19666;BMP180;9980;51.020;7.772;2022-10-31T05:55:54;97982.00;;;10.70
19666;BMP180;9980;51.020;7.772;2022-10-31T05:58:28;97978.00;;;10.70
19666;BMP180;9980;51.020;7.772;2022-10-31T06:01:22;97968.00;;;10.70
19666;BMP180;9980;51.020;7.772;2022-10-31T06:03:59;97972.00;;;10.70
19666;BMP180;9980;51.020;7.772;2022-10-31T06:06:53;97978.00;;;10.70
19666;BMP180;9980;51.020;7.772;2022-10-31T06:09:33;97973.00;;;10.70
19666;BMP180;9980;51.020;7.772;2022-10-31T06:12:21;97974.00;;;10.70
19666;BMP180;9980;51.020;7.772;2022-10-31T06:15:29;97964.00;;;10.70
19666;BMP180;9980;51.020;7.772;2022-10-31T06:18:17;97962.00;;;10.60
19666;BMP180;9980;51.020;7.772;2022-10-31T06:20:58;97970.00;;;10.60
19666;BMP180;9980;51.020;7.772;2022-10-31T06:23:45;97968.00;;;10.60
19666;BMP180;9980;51.020;7.772;2022-10-31T06:26:52;97968.00;;;10.60
19666;BMP180;9980;51.020;7.772;2022-10-31T06:29:47;97963.00;;;10.60
19666;BMP180;9980;51.020;7.772;2022-10-31T06:32:30;97973.00;;;10.60
19666;BMP180;9980;51.020;7.772;2022-10-31T06:35:25;97963.00;;;10.60
19666;BMP180;9980;51.020;7.772;2022-10-31T06:37:59;97970.00;;;10.60
19666;BMP180;9980;51.020;7.772;2022-10-31T06:40:54;97972.00;;;10.70
19666;BMP180;9980;51.020;7.772;2022-10-31T06:43:33;97980.00;;;10.70
19666;BMP180;9980;51.020;7.772;2022-10-31T06:46:49;97972.00;;;10.70
19666;BMP180;9980;51.020;7.772;2022-10-31T06:49:41;97984.00;;;10.70
19666;BMP180;9980;51.020;7.772;2022-10-31T06:52:34;97972.00;;;10.70
19666;BMP180;9980;51.020;7.772;2022-10-31T06:55:15;97969.00;;;10.80
19666;BMP180;9980;51.020;7.772;2022-10-31T06:58:02;97983.00;;;10.80
19666;BMP180;9980;51.020;7.772;2022-10-31T07:00:44;97977.00;;;10.80
19666;BMP180;9980;51.020;7.772;2022-10-31T07:03:31;97981.00;;;10.80
19666;BMP180;9980;51.020;7.772;2022-10-31T07:06:12;97990.00;;;10.80
19666;BMP180;9980;51.020;7.772;2022-10-31T07:08:59;97983.00;;;10.90
19666;BMP180;9980;51.020;7.772;2022-10-31T07:11:39;97975.00;;;10.90
19666;BMP180;9980;51.020;7.772;2022-10-31T07:14:26;97993.00;;;10.90
19666;BMP180;9980;51.020;7.772;2022-10-31T07:17:06;97981.00;;;11.00
19666;BMP180;9980;51.020;7.772;2022-10-31T07:20:06;97991.00;;;11.00
19666;BMP180;9980;51.020;7.772;2022-10-31T07:22:40;97997.00;;;11.10
19666;BMP180;9980;51.020;7.772;2022-10-31T07:25:38;97986.00;;;11.20
19666;BMP180;9980;51.020;7.772;2022-10-31T07:28:20;97993.00;;;11.20
19666;BMP180;9980;51.020;7.772;2022-10-31T07:31:14;97994.00;;;11.30
19666;BMP180;9980;51.020;7.772;2022-10-31T07:33:50;97969.00;;;11.40
19666;BMP180;9980;51.020;7.772;2022-10-31T07:37:01;97993.00;;;11.50
19666;BMP180;9980;51.020;7.772;2022-10-31T07:39:41;97991.00;;;11.60
19666;BMP180;9980;51.020;7.772;2022-10-31T07:42:45;97972.00;;;11.60
19666;BMP180;9980;51.020;7.772;2022-10-31T07:45:53;97980.00;;;11.70
19666;BMP180;9980;51.020;7.772;2022-10-31T07:48:58;97969.00;;;11.80
19666;BMP180;9980;51.020;7.772;2022-10-31T07:52:02;97967.00;;;11.90
19666;BMP180;9980;51.020;7.772;2022-10-31T07:55:14;97976.00;;;12.00
19666;BMP180;9980;51.020;7.772;2022-10-31T07:57:57;97981.00;;;12.10
19666;BMP180;9980;51.020;7.772;2022-10-31T08:00:50;97986.00;;;12.20
19666;BMP180;9980;51.020;7.772;2022-10-31T08:03:33;97983.00;;;12.30
19666;BMP180;9980;51.020;7.772;2022-10-31T08:06:55;97981.00;;;12.40
19666;BMP180;9980;51.020;7.772;2022-10-31T08:09:35;97979.00;;;12.50
19666;BMP180;9980;51.020;7.772;2022-10-31T08:12:33;97980.00;;;12.60
19666;BMP180;9980;51.020;7.772;2022-10-31T08:15:14;97970.00;;;12.70
19666;BMP180;9980;51.020;7.772;2022-10-31T08:18:00;97957.00;;;12.70
19666;BMP180;9980;51.020;7.772;2022-10-31T08:20:43;97962.00;;;12.90
19666;BMP180;9980;51.020;7.772;2022-10-31T08:23:30;97959.00;;;12.90
19666;BMP180;9980;51.020;7.772;2022-10-31T08:26:11;97959.00;;;13.00
19666;BMP180;9980;51.020;7.772;2022-10-31T08:29:00;97963.00;;;13.10
19666;BMP180;9980;51.020;7.772;2022-10-31T08:31:42;97980.00;;;13.20
19666;BMP180;9980;51.020;7.772;2022-10-31T08:34:48;97978.00;;;13.30
19666;BMP180;9980;51.020;7.772;2022-10-31T08:37:53;97972.00;;;13.40
19666;BMP180;9980;51.020;7.772;2022-10-31T08:40:49;97964.00;;;13.50
19666;BMP180;9980;51.020;7.772;2022-10-31T08:43:22;97958.00;;;13.60
19666;BMP180;9980;51.020;7.772;2022-10-31T08:46:18;97960.00;;;13.70
19666;BMP180;9980;51.020;7.772;2022-10-31T08:48:52;97943.00;;;13.80
19666;BMP180;9980;51.020;7.772;2022-10-31T08:51:49;97969.00;;;13.90
19666;BMP180;9980;51.020;7.772;2022-10-31T08:54:22;97958.00;;;14.00
19666;BMP180;9980;51.020;7.772;2022-10-31T08:57:34;97952.00;;;14.00
19666;BMP180;9980;51.020;7.772;2022-10-31T09:00:15;97945.00;;;14.10
19666;BMP180;9980;51.020;7.772;2022-10-31T09:03:18;97957.00;;;14.20
19666;BMP180;9980;51.020;7.772;2022-10-31T09:06:02;97957.00;;;14.30
19666;BMP180;9980;51.020;7.772;2022-10-31T09:08:49;97945.00;;;14.40
19666;BMP180;9980;51.020;7.772;2022-10-31T09:11:31;97955.00;;;14.50
19666;BMP180;9980;51.020;7.772;2022-10-31T09:14:17;97952.00;;;14.50
19666;BMP180;9980;51.020;7.772;2022-10-31T09:17:21;97957.00;;;14.70
19666;BMP180;9980;51.020;7.772;2022-10-31T09:20:29;97943.00;;;14.70
19666;BMP180;9980;51.020;7.772;2022-10-31T09:23:10;97949.00;;;14.80
19666;BMP180;9980;51.020;7.772;2022-10-31T09:26:05;97950.00;;;14.90
19666;BMP180;9980;51.020;7.772;2022-10-31T09:28:43;97939.00;;;15.00
19666;BMP180;9980;51.020;7.772;2022-10-31T09:31:36;97928.00;;;15.10
19666;BMP180;9980;51.020;7.772;2022-10-31T09:34:30;97937.00;;;15.20
19666;BMP180;9980;51.020;7.772;2022-10-31T09:37:25;97937.00;;;15.30
19666;BMP180;9980;51.020;7.772;2022-10-31T09:40:07;97941.00;;;15.40
19666;BMP180;9980;51.020;7.772;2022-10-31T09:52:36;97939.00;;;15.80
19666;BMP180;9980;51.020;7.772;2022-10-31T09:55:44;97939.00;;;15.80
19666;BMP180;9980;51.020;7.772;2022-10-31T09:58:25;97947.00;;;16.00
19666;BMP180;9980;51.020;7.772;2022-10-31T10:01:51;97924.00;;;16.10
19666;BMP180;9980;51.020;7.772;2022-10-31T10:07:44;97932.00;;;16.40
19666;BMP180;9980;51.020;7.772;2022-10-31T10:11:23;97919.00;;;16.50
19666;BMP180;9980;51.020;7.772;2022-10-31T10:28:23;97915.00;;;17.50
19666;BMP180;9980;51.020;7.772;2022-10-31T10:31:15;97901.00;;;17.60
19666;BMP180;9980;51.020;7.772;2022-10-31T10:34:13;97899.00;;;17.80
19666;BMP180;9980;51.020;7.772;2022-10-31T10:37:31;97902.00;;;18.00
19666;BMP180;9980;51.020;7.772;2022-10-31T10:40:28;97897.00;;;18.20
19666;BMP180;9980;51.020;7.772;2022-10-31T10:49:19;97874.00;;;18.60
19666;BMP180;9980;51.020;7.772;2022-10-31T10:53:11;97886.00;;;18.70
19666;BMP180;9980;51.020;7.772;2022-10-31T10:59:39;97866.00;;;19.10
19666;BMP180;9980;51.020;7.772;2022-10-31T11:02:24;97863.00;;;19.20
19666;BMP180;9980;51.020;7.772;2022-10-31T11:05:52;97860.00;;;19.30
19666;BMP180;9980;51.020;7.772;2022-10-31T11:08:35;97860.00;;;19.40
19666;BMP180;9980;51.020;7.772;2022-10-31T11:11:30;97850.00;;;19.50
19666;BMP180;9980;51.020;7.772;2022-10-31T11:14:15;97841.00;;;19.60
19666;BMP180;9980;51.020;7.772;2022-10-31T11:17:40;97842.00;;;19.80
19666;BMP180;9980;51.020;7.772;2022-10-31T11:20:35;97838.00;;;19.90
19666;BMP180;9980;51.020;7.772;2022-10-31T11:23:25;97825.00;;;19.90
19666;BMP180;9980;51.020;7.772;2022-10-31T11:26:20;97834.00;;;20.00
19666;BMP180;9980;51.020;7.772;2022-10-31T11:29:17;97817.00;;;20.10
19666;BMP180;9980;51.020;7.772;2022-10-31T11:32:00;97824.00;;;20.20
19666;BMP180;9980;51.020;7.772;2022-10-31T11:34:53;97810.00;;;20.30
19666;BMP180;9980;51.020;7.772;2022-10-31T11:37:41;97804.00;;;20.40
19666;BMP180;9980;51.020;7.772;2022-10-31T11:40:30;97812.00;;;20.40
19666;BMP180;9980;51.020;7.772;2022-10-31T11:43:17;97792.00;;;20.50
19666;BMP180;9980;51.020;7.772;2022-10-31T11:46:19;97801.00;;;20.50
19666;BMP180;9980;51.020;7.772;2022-10-31T11:48:55;97806.00;;;20.60
19666;BMP180;9980;51.020;7.772;2022-10-31T11:51:55;97798.00;;;20.70
19666;BMP180;9980;51.020;7.772;2022-10-31T11:54:42;97794.00;;;20.70
19666;BMP180;9980;51.020;7.772;2022-10-31T11:57:51;97793.00;;;20.70
19666;BMP180;9980;51.020;7.772;2022-10-31T12:00:37;97777.00;;;20.80
19666;BMP180;9980;51.020;7.772;2022-10-31T12:04:12;97780.00;;;20.80
19666;BMP180;9980;51.020;7.772;2022-10-31T12:06:53;97778.00;;;20.90
19666;BMP180;9980;51.020;7.772;2022-10-31T12:09:41;97781.00;;;21.00
19666;BMP180;9980;51.020;7.772;2022-10-31T12:12:42;97772.00;;;21.00
19666;BMP180;9980;51.020;7.772;2022-10-31T12:15:36;97765.00;;;21.10
19666;BMP180;9980;51.020;7.772;2022-10-31T12:18:45;97768.00;;;21.20
19666;BMP180;9980;51.020;7.772;2022-10-31T12:43:06;97724.00;;;21.60
19666;BMP180;9980;51.020;7.772;2022-10-31T12:45:58;97720.00;;;21.70
19666;BMP180;9980;51.020;7.772;2022-10-31T12:49:12;97721.00;;;21.80
19666;BMP180;9980;51.020;7.772;2022-10-31T12:56:07;97695.00;;;21.90
19666;BMP180;9980;51.020;7.772;2022-10-31T12:59:28;97695.00;;;22.00
19666;BMP180;9980;51.020;7.772;2022-10-31T13:02:33;97699.00;;;22.10
19666;BMP180;9980;51.020;7.772;2022-10-31T13:05:33;97700.00;;;22.10
19666;BMP180;9980;51.020;7.772;2022-10-31T13:08:53;97688.00;;;22.20
19666;BMP180;9980;51.020;7.772;2022-10-31T13:11:53;97690.00;;;22.20
19666;BMP180;9980;51.020;7.772;2022-10-31T13:14:56;97675.00;;;22.30
19666;BMP180;9980;51.020;7.772;2022-10-31T13:17:46;97683.00;;;22.40
19666;BMP180;9980;51.020;7.772;2022-10-31T13:20:45;97674.00;;;22.40
19666;BMP180;9980;51.020;7.772;2022-10-31T13:23:32;97666.00;;;22.40
19666;BMP180;9980;51.020;7.772;2022-10-31T13:26:43;97659.00;;;22.40
19666;BMP180;9980;51.020;7.772;2022-10-31T13:30:23;97665.00;;;22.40
19666;BMP180;9980;51.020;7.772;2022-10-31T13:33:17;97665.00;;;22.50
19666;BMP180;9980;51.020;7.772;2022-10-31T13:39:51;97661.00;;;22.50
19666;BMP180;9980;51.020;7.772;2022-10-31T13:43:10;97647.00;;;22.50
19666;BMP180;9980;51.020;7.772;2022-10-31T13:45:56;97638.00;;;22.50
19666;BMP180;9980;51.020;7.772;2022-10-31T13:48:43;97625.00;;;22.50
19666;BMP180;9980;51.020;7.772;2022-10-31T13:51:34;97628.00;;;22.50
19666;BMP180;9980;51.020;7.772;2022-10-31T13:54:37;97633.00;;;22.50
19666;BMP180;9980;51.020;7.772;2022-10-31T13:57:38;97611.00;;;22.50
19666;BMP180;9980;51.020;7.772;2022-10-31T14:00:35;97619.00;;;22.50
19666;BMP180;9980;51.020;7.772;2022-10-31T14:03:19;97625.00;;;22.50
19666;BMP180;9980;51.020;7.772;2022-10-31T14:06:44;97617.00;;;22.50
19666;BMP180;9980;51.020;7.772;2022-10-31T14:09:29;97607.00;;;22.50
19666;BMP180;9980;51.020;7.772;2022-10-31T14:12:44;97608.00;;;22.50
19666;BMP180;9980;51.020;7.772;2022-10-31T14:15:27;97595.00;;;22.50
19666;BMP180;9980;51.020;7.772;2022-10-31T14:18:45;97597.00;;;22.50
19666;BMP180;9980;51.020;7.772;2022-10-31T14:21:35;97604.00;;;22.50
19666;BMP180;9980;51.020;7.772;2022-10-31T14:24:34;97603.00;;;22.50
19666;BMP180;9980;51.020;7.772;2022-10-31T14:30:26;97580.00;;;22.50
19666;BMP180;9980;51.020;7.772;2022-10-31T14:33:18;97576.00;;;22.40
19666;BMP180;9980;51.020;7.772;2022-10-31T14:36:28;97578.00;;;22.40
19666;BMP180;9980;51.020;7.772;2022-10-31T14:39:30;97570.00;;;22.40
19666;BMP180;9980;51.020;7.772;2022-10-31T14:52:36;97578.00;;;22.20
19666;BMP180;9980;51.020;7.772;2022-10-31T14:55:55;97592.00;;;22.10
19666;BMP180;9980;51.020;7.772;2022-10-31T14:58:42;97579.00;;;22.10
19666;BMP180;9980;51.020;7.772;2022-10-31T15:01:39;97578.00;;;22.10
19666;BMP180;9980;51.020;7.772;2022-10-31T15:04:30;97574.00;;;22.00
19666;BMP180;9980;51.020;7.772;2022-10-31T15:07:27;97580.00;;;22.00
19666;BMP180;9980;51.020;7.772;2022-10-31T15:10:32;97579.00;;;21.90
19666;BMP180;9980;51.020;7.772;2022-10-31T15:13:21;97580.00;;;21.90
19666;BMP180;9980;51.020;7.772;2022-10-31T15:16:02;97575.00;;;21.90
19666;BMP180;9980;51.020;7.772;2022-10-31T15:19:10;97569.00;;;21.80
19666;BMP180;9980;51.020;7.772;2022-10-31T15:21:53;97566.00;;;21.70
19666;BMP180;9980;51.020;7.772;2022-10-31T15:24:49;97551.00;;;21.70
19666;BMP180;9980;51.020;7.772;2022-10-31T15:27:29;97562.00;;;21.70
19666;BMP180;9980;51.020;7.772;2022-10-31T15:30:27;97546.00;;;21.60
19666;BMP180;9980;51.020;7.772;2022-10-31T15:33:00;97533.00;;;21.60
19666;BMP180;9980;51.020;7.772;2022-10-31T15:36:00;97559.00;;;21.50
19666;BMP180;9980;51.020;7.772;2022-10-31T15:38:41;97549.00;;;21.50
19666;BMP180;9980;51.020;7.772;2022-10-31T15:41:34;97549.00;;;21.40
19666;BMP180;9980;51.020;7.772;2022-10-31T15:44:34;97563.00;;;21.40
19666;BMP180;9980;51.020;7.772;2022-10-31T15:47:21;97527.00;;;21.30
19666;BMP180;9980;51.020;7.772;2022-10-31T15:50:55;97549.00;;;21.30
19666;BMP180;9980;51.020;7.772;2022-10-31T15:53:52;97546.00;;;21.20
19666;BMP180;9980;51.020;7.772;2022-10-31T15:56:48;97535.00;;;21.20
19666;BMP180;9980;51.020;7.772;2022-10-31T15:59:28;97528.00;;;21.10
19666;BMP180;9980;51.020;7.772;2022-10-31T16:02:27;97529.00;;;21.00
19666;BMP180;9980;51.020;7.772;2022-10-31T16:05:19;97525.00;;;20.90
19666;BMP180;9980;51.020;7.772;2022-10-31T16:17:00;97532.00;;;20.60
19666;BMP180;9980;51.020;7.772;2022-10-31T16:20:02;97522.00;;;20.40
19666;BMP180;9980;51.020;7.772;2022-10-31T16:22:38;97521.00;;;20.40
19666;BMP180;9980;51.020;7.772;2022-10-31T16:25:38;97524.00;;;20.30
19666;BMP180;9980;51.020;7.772;2022-10-31T16:28:21;97518.00;;;20.20
19666;BMP180;9980;51.020;7.772;2022-10-31T16:31:37;97503.00;;;20.00
19666;BMP180;9980;51.020;7.772;2022-10-31T16:34:32;97505.00;;;19.90
19666;BMP180;9980;51.020;7.772;2022-10-31T16:37:05;97510.00;;;19.80
19666;BMP180;9980;51.020;7.772;2022-10-31T16:39:59;97515.00;;;19.70
19666;BMP180;9980;51.020;7.772;2022-10-31T16:42:33;97499.00;;;19.60
19666;BMP180;9980;51.020;7.772;2022-10-31T16:45:32;97504.00;;;19.50
19666;BMP180;9980;51.020;7.772;2022-10-31T16:48:14;97504.00;;;19.40
19666;BMP180;9980;51.020;7.772;2022-10-31T16:51:10;97496.00;;;19.20
19666;BMP180;9980;51.020;7.772;2022-10-31T16:53:43;97482.00;;;19.20
19666;BMP180;9980;51.020;7.772;2022-10-31T16:56:37;97479.00;;;19.00
19666;BMP180;9980;51.020;7.772;2022-10-31T16:59:18;97466.00;;;19.00
19666;BMP180;9980;51.020;7.772;2022-10-31T17:02:15;97461.00;;;18.90
19666;BMP180;9980;51.020;7.772;2022-10-31T17:04:56;97469.00;;;18.80
19666;BMP180;9980;51.020;7.772;2022-10-31T17:07:43;97468.00;;;18.70
19666;BMP180;9980;51.020;7.772;2022-10-31T17:10:24;97463.00;;;18.60
19666;BMP180;9980;51.020;7.772;2022-10-31T17:13:21;97476.00;;;18.60
19666;BMP180;9980;51.020;7.772;2022-10-31T17:16:03;97468.00;;;18.50
19666;BMP180;9980;51.020;7.772;2022-10-31T17:18:50;97467.00;;;18.40
19666;BMP180;9980;51.020;7.772;2022-10-31T17:21:30;97478.00;;;18.30
19666;BMP180;9980;51.020;7.772;2022-10-31T17:24:25;97455.00;;;18.10
19666;BMP180;9980;51.020;7.772;2022-10-31T17:27:05;97439.00;;;18.20
19666;BMP180;9980;51.020;7.772;2022-10-31T17:30:00;97456.00;;;18.10
19666;BMP180;9980;51.020;7.772;2022-10-31T17:32:33;97456.00;;;18.10
19666;BMP180;9980;51.020;7.772;2022-10-31T17:35:27;97456.00;;;18.00
19666;BMP180;9980;51.020;7.772;2022-10-31T17:38:00;97452.00;;;18.00
19666;BMP180;9980;51.020;7.772;2022-10-31T17:40:54;97464.00;;;17.90
19666;BMP180;9980;51.020;7.772;2022-10-31T17:43:36;97487.00;;;17.90
19666;BMP180;9980;51.020;7.772;2022-10-31T17:46:30;97478.00;;;17.80
19666;BMP180;9980;51.020;7.772;2022-10-31T17:49:10;97470.00;;;17.70
19666;BMP180;9980;51.020;7.772;2022-10-31T17:51:58;97462.00;;;17.70
19666;BMP180;9980;51.020;7.772;2022-10-31T17:54:38;97452.00;;;17.70
19666;BMP180;9980;51.020;7.772;2022-10-31T17:57:25;97443.00;;;17.60
19666;BMP180;9980;51.020;7.772;2022-10-31T18:00:08;97456.00;;;17.50
19666;BMP180;9980;51.020;7.772;2022-10-31T18:02:57;97456.00;;;17.50
19666;BMP180;9980;51.020;7.772;2022-10-31T18:05:37;97462.00;;;17.40
19666;BMP180;9980;51.020;7.772;2022-10-31T18:08:31;97453.00;;;17.30
19666;BMP180;9980;51.020;7.772;2022-10-31T18:11:19;97448.00;;;17.30
19666;BMP180;9980;51.020;7.772;2022-10-31T18:14:14;97462.00;;;17.20
19666;BMP180;9980;51.020;7.772;2022-10-31T18:16:47;97454.00;;;17.20
19666;BMP180;9980;51.020;7.772;2022-10-31T18:19:41;97468.00;;;17.20
19666;BMP180;9980;51.020;7.772;2022-10-31T18:22:21;97459.00;;;17.10
19666;BMP180;9980;51.020;7.772;2022-10-31T18:25:15;97446.00;;;17.10
19666;BMP180;9980;51.020;7.772;2022-10-31T18:27:48;97443.00;;;17.00
19666;BMP180;9980;51.020;7.772;2022-10-31T18:30:42;97446.00;;;17.00
19666;BMP180;9980;51.020;7.772;2022-10-31T18:33:16;97444.00;;;16.90
19666;BMP180;9980;51.020;7.772;2022-10-31T18:36:11;97454.00;;;16.90
19666;BMP180;9980;51.020;7.772;2022-10-31T18:38:44;97466.00;;;16.80
19666;BMP180;9980;51.020;7.772;2022-10-31T18:41:38;97443.00;;;16.80
19666;BMP180;9980;51.020;7.772;2022-10-31T18:44:19;97451.00;;;16.70
19666;BMP180;9980;51.020;7.772;2022-10-31T18:47:07;97456.00;;;16.60